11.01C
облачно с прояснениями
облачно с прояснениями
Дата и времяТемператураДавление, мм рт.ст.Влажность, %Осадки
МинимумМаксимум
16.08.2022 23:008.92C10.31C75693небольшой дождь
17.08.2022 02:008.68C9.46C75795небольшой дождь
17.08.2022 05:008.51C8.51C75891небольшой дождь
17.08.2022 08:009.55C9.55C75878небольшой дождь
17.08.2022 11:0011.18C11.18C75962небольшой дождь
17.08.2022 14:0012.01C12.01C75956небольшой дождь
17.08.2022 17:0010.52C10.52C76066небольшой дождь
17.08.2022 20:006.86C6.86C76183облачно с прояснениями
17.08.2022 23:007.24C7.24C76183небольшой дождь
18.08.2022 02:006.83C6.83C76188небольшой дождь
18.08.2022 05:006.84C6.84C76290пасмурно
18.08.2022 08:008.24C8.24C76283пасмурно
18.08.2022 11:0011.05C11.05C76372пасмурно
18.08.2022 14:0012.95C12.95C76367пасмурно
18.08.2022 17:0013.75C13.75C76368пасмурно
18.08.2022 20:0011.43C11.43C76382пасмурно
18.08.2022 23:0010.83C10.83C76288пасмурно
19.08.2022 02:0011.3C11.3C76287небольшой дождь
19.08.2022 05:0010.61C10.61C76289небольшой дождь
19.08.2022 08:0012.34C12.34C76270пасмурно
19.08.2022 11:0016.06C16.06C76348облачно с прояснениями
19.08.2022 14:0017.32C17.32C76240небольшая облачность
19.08.2022 17:0016.57C16.57C76342небольшая облачность
19.08.2022 20:0011.81C11.81C76459небольшая облачность
19.08.2022 23:009.6C9.6C76468ясно
20.08.2022 02:008.17C8.17C76474ясно
20.08.2022 05:007.5C7.5C76476ясно
20.08.2022 08:0012.58C12.58C76457ясно
20.08.2022 11:0016.28C16.28C76342ясно
20.08.2022 14:0018.49C18.49C76238небольшая облачность
20.08.2022 17:0018.34C18.34C76252небольшая облачность
20.08.2022 20:0014.29C14.29C76278пасмурно
20.08.2022 23:0013.06C13.06C76188пасмурно
21.08.2022 02:0012.19C12.19C76096небольшой дождь
21.08.2022 05:0011.97C11.97C76092небольшой дождь
21.08.2022 08:009.32C9.32C76187пасмурно
21.08.2022 11:009.18C9.18C76284пасмурно
21.08.2022 14:008.43C8.43C76282пасмурно
21.08.2022 17:007.18C7.18C76386небольшой дождь
21.08.2022 20:007.24C7.24C76489небольшой дождь
Дата и время наблюдения: 16.08.2022 20:16:55